createdAt,value
2018-09-23T00:02:26.023Z,62.60
2018-09-23T00:04:55.473Z,62.70
2018-09-23T00:07:24.102Z,63.00
2018-09-23T00:09:52.595Z,63.30
2018-09-23T00:12:21.171Z,63.70
2018-09-23T00:14:50.257Z,63.80
2018-09-23T00:17:19.634Z,63.90
2018-09-23T00:19:48.625Z,63.60
2018-09-23T00:22:17.272Z,63.40
2018-09-23T00:24:45.836Z,63.60
2018-09-23T00:27:14.752Z,64.70
2018-09-23T00:29:48.613Z,64.50
2018-09-23T00:32:17.813Z,64.20
2018-09-23T00:34:46.312Z,64.40
2018-09-23T00:37:14.847Z,64.90
2018-09-23T00:39:43.769Z,64.20
2018-09-23T00:42:13.672Z,64.30
2018-09-23T00:44:42.387Z,64.10
2018-09-23T00:47:11.314Z,64.40
2018-09-23T00:49:40.003Z,64.10
2018-09-23T00:52:08.768Z,65.30
2018-09-23T00:54:37.819Z,64.50
2018-09-23T00:57:06.396Z,64.90
2018-09-23T00:59:34.994Z,65.50
2018-09-23T01:02:03.703Z,64.70
2018-09-23T01:04:32.370Z,64.70
2018-09-23T01:07:00.984Z,65.10
2018-09-23T01:09:30.147Z,64.90
2018-09-23T01:11:58.675Z,65.20
2018-09-23T01:14:53.434Z,65.50
2018-09-23T01:17:31.326Z,65.20
2018-09-23T01:29:48.505Z,64.90
2018-09-23T01:32:18.480Z,65.00
2018-09-23T01:34:47.010Z,65.10
2018-09-23T01:37:15.996Z,65.30
2018-09-23T01:39:44.610Z,65.30
2018-09-23T01:42:13.087Z,65.90
2018-09-23T01:44:41.586Z,65.30
2018-09-23T01:47:10.200Z,65.10
2018-09-23T01:49:38.696Z,65.30
2018-09-23T01:52:07.342Z,65.40
2018-09-23T01:54:36.317Z,65.50
2018-09-23T01:57:04.738Z,65.10
2018-09-23T01:59:33.273Z,65.50
2018-09-23T02:02:02.096Z,65.50
2018-09-23T02:04:30.580Z,65.50
2018-09-23T02:06:58.950Z,65.90
2018-09-23T02:09:27.854Z,65.70
2018-09-23T02:11:56.287Z,65.50
2018-09-23T02:14:24.699Z,65.70
2018-09-23T02:16:54.350Z,65.50
2018-09-23T02:19:23.751Z,65.70
2018-09-23T02:21:52.430Z,65.60
2018-09-23T02:24:21.012Z,65.80
2018-09-23T02:26:50.257Z,66.00
2018-09-23T02:29:19.373Z,65.60
2018-09-23T02:31:49.471Z,65.30
2018-09-23T02:34:18.940Z,65.50
2018-09-23T02:36:47.578Z,65.70
2018-09-23T02:42:43.689Z,65.40
2018-09-23T02:51:26.062Z,65.30
2018-09-23T02:53:55.402Z,65.60
2018-09-23T02:56:24.072Z,65.70
2018-09-23T02:58:52.905Z,65.60
2018-09-23T03:01:22.122Z,65.90
2018-09-23T03:03:50.537Z,65.60
2018-09-23T03:06:24.438Z,66.00
2018-09-23T03:08:53.382Z,66.50
2018-09-23T03:11:21.865Z,66.00
2018-09-23T03:13:50.860Z,66.10
2018-09-23T03:16:20.161Z,66.20
2018-09-23T03:18:49.302Z,66.30
2018-09-23T03:21:18.760Z,66.30
2018-09-23T03:23:49.549Z,65.70
2018-09-23T03:29:48.777Z,65.70
2018-09-23T03:32:17.413Z,65.70
2018-09-23T03:34:46.192Z,66.00
2018-09-23T03:37:41.499Z,65.60
2018-09-23T03:43:18.452Z,66.10
2018-09-23T03:45:47.038Z,65.60
2018-09-23T03:51:58.039Z,66.20
2018-09-23T03:56:23.328Z,66.30
2018-09-23T03:58:51.902Z,66.10
2018-09-23T04:04:27.555Z,65.90
2018-09-23T04:06:56.156Z,66.10
2018-09-23T04:09:24.778Z,65.90
2018-09-23T04:11:53.697Z,66.10
2018-09-23T04:14:22.370Z,66.10
2018-09-23T04:16:51.774Z,65.90
2018-09-23T04:19:20.800Z,66.10
2018-09-23T04:21:50.328Z,66.30
2018-09-23T04:24:19.006Z,66.40
2018-09-23T04:26:48.606Z,65.80
2018-09-23T04:29:17.179Z,66.40
2018-09-23T04:31:45.940Z,66.50
2018-09-23T04:34:14.666Z,67.10
2018-09-23T04:36:43.078Z,66.40
2018-09-23T04:39:12.426Z,66.60
2018-09-23T04:41:41.219Z,66.10
2018-09-23T04:44:10.790Z,66.40
2018-09-23T04:46:39.449Z,66.30
2018-09-23T04:49:08.366Z,66.40
2018-09-23T04:51:36.941Z,66.30
2018-09-23T04:54:05.436Z,66.70
2018-09-23T04:56:34.210Z,66.70
2018-09-23T04:59:02.839Z,66.50
2018-09-23T05:01:31.296Z,66.40
2018-09-23T05:04:00.173Z,66.60
2018-09-23T05:06:28.567Z,66.70
2018-09-23T05:08:56.966Z,66.30
2018-09-23T05:11:25.697Z,66.40
2018-09-23T05:13:54.198Z,66.30
2018-09-23T05:16:22.777Z,66.40
2018-09-23T05:18:51.612Z,66.60
2018-09-23T05:21:20.333Z,66.50
2018-09-23T05:23:49.871Z,66.70
2018-09-23T05:26:18.892Z,66.30
2018-09-23T05:28:47.744Z,66.50
2018-09-23T05:31:16.360Z,66.80
2018-09-23T05:33:45.185Z,66.70
2018-09-23T05:36:13.942Z,66.80
2018-09-23T05:38:43.369Z,66.50
2018-09-23T05:41:12.418Z,66.50
2018-09-23T05:43:40.915Z,66.40
2018-09-23T05:46:09.306Z,66.90
2018-09-23T05:48:37.829Z,66.90
2018-09-23T05:51:06.683Z,66.90
2018-09-23T05:53:35.350Z,66.90
2018-09-23T05:56:04.121Z,67.30
2018-09-23T05:58:32.784Z,67.20
2018-09-23T06:01:01.830Z,67.10
2018-09-23T06:03:30.727Z,67.00
2018-09-23T06:05:59.288Z,67.50
2018-09-23T06:08:27.906Z,68.10
2018-09-23T06:10:56.793Z,67.20
2018-09-23T06:13:25.252Z,67.10
2018-09-23T06:15:53.644Z,66.90
2018-09-23T06:18:22.483Z,66.90
2018-09-23T06:20:50.940Z,66.90
2018-09-23T06:23:20.168Z,67.20
2018-09-23T06:25:49.185Z,67.20
2018-09-23T06:28:18.140Z,67.50
2018-09-23T06:44:08.080Z,67.70
2018-09-23T06:55:59.438Z,67.30
2018-09-23T06:58:38.433Z,67.10
2018-09-23T07:07:23.014Z,67.70
2018-09-23T07:09:51.597Z,66.60
2018-09-23T07:15:32.150Z,65.60
2018-09-23T07:18:00.634Z,65.80
2018-09-23T07:20:29.183Z,65.70
2018-09-23T07:22:57.974Z,66.00
2018-09-23T07:25:26.400Z,65.70
2018-09-23T07:27:55.113Z,64.90
2018-09-23T07:30:23.933Z,64.10
2018-09-23T07:39:08.111Z,62.80
2018-09-23T07:41:36.827Z,62.90
2018-09-23T07:44:05.548Z,62.90
2018-09-23T07:46:35.127Z,63.40
2018-09-23T07:49:03.732Z,62.80
2018-09-23T07:51:32.405Z,62.20
2018-09-23T07:54:03.508Z,62.40
2018-09-23T07:56:32.446Z,62.10
2018-09-23T07:59:01.469Z,62.50
2018-09-23T08:01:30.106Z,62.20
2018-09-23T08:03:58.852Z,62.40
2018-09-23T08:06:27.725Z,62.20
2018-09-23T08:08:56.322Z,62.30
2018-09-23T08:11:25.716Z,63.10
2018-09-23T08:13:54.393Z,63.10
2018-09-23T08:16:23.358Z,61.90
2018-09-23T08:18:51.991Z,62.50
2018-09-23T08:21:20.652Z,62.70
2018-09-23T08:23:49.603Z,62.50
2018-09-23T08:26:18.724Z,62.90
2018-09-23T08:28:47.754Z,63.00
2018-09-23T08:31:16.412Z,62.70
2018-09-23T08:33:44.955Z,62.60
2018-09-23T08:36:13.603Z,62.80
2018-09-23T08:38:42.509Z,62.50
2018-09-23T08:41:11.276Z,62.20
2018-09-23T08:43:40.065Z,62.00
2018-09-23T08:46:09.010Z,62.00
2018-09-23T08:48:38.560Z,62.10
2018-09-23T08:51:08.084Z,62.80
2018-09-23T08:53:37.946Z,62.60
2018-09-23T08:56:08.054Z,61.70
2018-09-23T08:58:37.545Z,62.00
2018-09-23T09:01:07.609Z,62.50
2018-09-23T09:03:37.169Z,62.40
2018-09-23T09:06:06.679Z,61.60
2018-09-23T09:08:36.372Z,62.60
2018-09-23T09:11:05.831Z,62.80
2018-09-23T09:13:40.400Z,62.30
2018-09-23T09:16:10.019Z,62.40
2018-09-23T09:18:39.712Z,62.30
2018-09-23T09:21:09.283Z,63.80
2018-09-23T09:23:38.828Z,62.80
2018-09-23T09:26:08.776Z,61.50
2018-09-23T09:28:38.411Z,61.80
2018-09-23T09:31:08.299Z,60.90
2018-09-23T09:33:37.927Z,61.20
2018-09-23T09:36:07.384Z,60.60
2018-09-23T09:38:37.121Z,60.90
2018-09-23T09:41:07.561Z,61.90
2018-09-23T09:43:37.106Z,62.40
2018-09-23T09:46:07.151Z,62.10
2018-09-23T09:48:37.138Z,60.90
2018-09-23T09:51:06.725Z,62.30
2018-09-23T09:53:36.730Z,62.00
2018-09-23T09:56:06.798Z,60.20
2018-09-23T09:58:36.385Z,59.50
2018-09-23T10:01:06.058Z,59.10
2018-09-23T10:03:36.077Z,59.60
2018-09-23T10:06:05.669Z,59.60
2018-09-23T10:08:35.280Z,59.10
2018-09-23T10:11:04.914Z,58.50
2018-09-23T10:13:34.619Z,57.50
2018-09-23T10:16:04.863Z,59.00
2018-09-23T10:18:34.460Z,59.90
2018-09-23T10:21:04.528Z,59.30
2018-09-23T10:23:35.115Z,60.60
2018-09-23T10:26:05.085Z,60.90
2018-09-23T10:28:34.836Z,60.50
2018-09-23T10:31:04.463Z,62.40
2018-09-23T10:33:34.459Z,62.40
2018-09-23T10:36:04.460Z,61.30
2018-09-23T10:38:34.025Z,60.50
2018-09-23T10:41:03.980Z,60.80
2018-09-23T10:43:47.684Z,60.00
2018-09-23T10:50:14.096Z,60.20
2018-09-23T10:52:43.873Z,59.10
2018-09-23T10:55:13.328Z,59.60
2018-09-23T10:57:42.877Z,59.00
2018-09-23T11:00:12.807Z,58.30
2018-09-23T11:02:42.278Z,57.40
2018-09-23T11:05:12.336Z,57.90
2018-09-23T11:07:42.558Z,56.30
2018-09-23T11:10:11.949Z,57.70
2018-09-23T11:12:41.508Z,57.50
2018-09-23T11:15:11.389Z,57.30
2018-09-23T11:17:40.987Z,57.90
2018-09-23T11:20:10.433Z,59.00
2018-09-23T11:22:40.446Z,57.90
2018-09-23T11:25:10.069Z,57.10
2018-09-23T11:27:40.044Z,58.50
2018-09-23T11:30:09.373Z,58.30
2018-09-23T11:32:38.824Z,57.00
2018-09-23T11:35:08.443Z,57.60
2018-09-23T11:37:38.674Z,54.80
2018-09-23T11:40:08.645Z,55.40
2018-09-23T11:42:38.651Z,56.80
2018-09-23T11:45:08.171Z,56.00
2018-09-23T11:47:37.904Z,55.30
2018-09-23T11:50:07.563Z,54.10
2018-09-23T11:52:37.162Z,52.90
2018-09-23T11:55:06.789Z,53.40
2018-09-23T11:57:36.535Z,54.90
2018-09-23T12:00:07.320Z,55.10
2018-09-23T12:02:36.978Z,53.80
2018-09-23T12:05:07.289Z,55.10
2018-09-23T12:07:37.431Z,53.80
2018-09-23T12:10:07.919Z,50.60
2018-09-23T12:12:37.585Z,51.20
2018-09-23T12:15:07.959Z,53.40
2018-09-23T12:17:38.075Z,54.40
2018-09-23T12:20:07.988Z,53.70
2018-09-23T12:22:38.039Z,51.60
2018-09-23T12:25:08.565Z,51.20
2018-09-23T12:27:38.114Z,53.40
2018-09-23T12:30:08.193Z,52.90
2018-09-23T12:32:37.752Z,54.00
2018-09-23T12:35:08.040Z,52.30
2018-09-23T12:37:38.078Z,50.40
2018-09-23T12:40:08.371Z,51.70
2018-09-23T12:42:37.958Z,51.10
2018-09-23T12:45:07.786Z,52.00
2018-09-23T12:47:37.715Z,52.60
2018-09-23T12:50:07.406Z,52.90
2018-09-23T12:52:37.367Z,54.00
2018-09-23T12:55:06.956Z,53.70
2018-09-23T12:57:36.613Z,53.10
2018-09-23T13:00:06.907Z,52.60
2018-09-23T13:02:37.499Z,52.80
2018-09-23T13:05:07.208Z,53.60
2018-09-23T13:07:37.022Z,52.70
2018-09-23T13:10:07.160Z,50.70
2018-09-23T13:12:37.791Z,50.00
2018-09-23T13:15:10.572Z,51.30
2018-09-23T13:17:40.657Z,49.60
2018-09-23T13:20:10.170Z,50.50
2018-09-23T13:22:39.669Z,50.20
2018-09-23T13:25:09.109Z,50.20
2018-09-23T13:27:38.992Z,50.40
2018-09-23T13:30:08.490Z,50.90
2018-09-23T13:32:39.183Z,50.30
2018-09-23T13:35:09.255Z,50.10
2018-09-23T13:37:38.903Z,49.40
2018-09-23T13:40:08.481Z,50.00
2018-09-23T13:42:39.460Z,51.20
2018-09-23T13:45:09.426Z,50.90
2018-09-23T13:47:39.100Z,52.00
2018-09-23T13:50:08.957Z,50.60
2018-09-23T13:52:38.596Z,49.90
2018-09-23T13:55:08.187Z,49.50
2018-09-23T13:57:37.941Z,49.40
2018-09-23T14:00:07.524Z,49.60
2018-09-23T14:02:37.873Z,50.10
2018-09-23T14:05:08.126Z,51.20
2018-09-23T14:07:37.879Z,52.10
2018-09-23T14:10:08.562Z,50.40
2018-09-23T14:12:38.319Z,51.70
2018-09-23T14:15:07.951Z,50.80
2018-09-23T14:17:37.431Z,51.40
2018-09-23T14:20:07.634Z,51.50
2018-09-23T14:22:37.173Z,51.70
2018-09-23T14:25:06.968Z,49.10
2018-09-23T14:27:37.039Z,48.40
2018-09-23T14:30:07.808Z,48.90
2018-09-23T14:32:39.268Z,48.90
2018-09-23T14:35:08.775Z,48.60
2018-09-23T14:37:38.721Z,47.70
2018-09-23T14:40:08.321Z,47.20
2018-09-23T14:42:38.560Z,46.50
2018-09-23T14:45:08.645Z,47.40
2018-09-23T14:47:38.066Z,48.10
2018-09-23T14:50:09.943Z,48.30
2018-09-23T14:52:39.664Z,47.20
2018-09-23T14:55:13.177Z,48.60
2018-09-23T14:57:43.115Z,46.90
2018-09-23T15:00:12.799Z,46.20
2018-09-23T15:02:42.727Z,48.50
2018-09-23T15:05:12.206Z,47.80
2018-09-23T15:07:41.757Z,49.30
2018-09-23T15:10:11.889Z,49.70
2018-09-23T15:12:41.519Z,50.00
2018-09-23T15:15:13.150Z,50.70
2018-09-23T15:17:42.816Z,50.20
2018-09-23T15:20:14.317Z,49.40
2018-09-23T15:22:45.191Z,49.80
2018-09-23T15:25:14.855Z,48.80
2018-09-23T15:27:44.279Z,49.90
2018-09-23T15:30:14.046Z,49.70
2018-09-23T15:32:43.838Z,50.30
2018-09-23T15:35:13.411Z,49.90
2018-09-23T15:37:42.919Z,50.00
2018-09-23T15:40:12.649Z,51.00
2018-09-23T15:42:43.800Z,51.20
2018-09-23T15:45:13.528Z,52.00
2018-09-23T15:47:43.343Z,50.20
2018-09-23T15:50:12.850Z,50.30
2018-09-23T15:52:43.750Z,50.10
2018-09-23T15:55:13.464Z,51.70
2018-09-23T15:57:48.610Z,52.20
2018-09-23T16:00:19.285Z,51.70
2018-09-23T16:02:49.522Z,52.30
2018-09-23T16:05:19.257Z,52.50
2018-09-23T16:07:49.172Z,51.90
2018-09-23T16:10:20.032Z,51.60
2018-09-23T16:12:50.655Z,52.10
2018-09-23T16:15:23.043Z,52.20
2018-09-23T16:17:52.484Z,53.00
2018-09-23T16:20:22.210Z,53.10
2018-09-23T16:22:51.874Z,52.50
2018-09-23T16:25:21.434Z,53.30
2018-09-23T16:27:51.494Z,52.80
2018-09-23T16:30:22.385Z,52.40
2018-09-23T16:32:52.995Z,52.70
2018-09-23T16:35:24.228Z,52.10
2018-09-23T16:37:55.719Z,53.20
2018-09-23T16:40:27.881Z,52.80
2018-09-23T16:42:58.257Z,52.30
2018-09-23T16:45:28.559Z,51.20
2018-09-23T16:47:58.678Z,52.80
2018-09-23T16:50:29.498Z,53.00
2018-09-23T16:53:00.764Z,53.40
2018-09-23T16:55:31.476Z,53.20
2018-09-23T16:58:01.818Z,53.50
2018-09-23T17:00:32.953Z,54.20
2018-09-23T17:03:04.565Z,54.30
2018-09-23T17:05:34.551Z,53.30
2018-09-23T17:08:04.197Z,53.20
2018-09-23T17:10:35.585Z,52.90
2018-09-23T17:13:05.698Z,53.60
2018-09-23T17:15:35.496Z,53.90
2018-09-23T17:18:05.069Z,54.10
2018-09-23T17:20:35.234Z,54.30
2018-09-23T17:23:12.219Z,54.90
2018-09-23T17:25:43.515Z,55.70
2018-09-23T17:28:14.140Z,55.40
2018-09-23T17:30:45.135Z,56.00
2018-09-23T17:33:15.947Z,55.80
2018-09-23T17:35:47.147Z,55.70
2018-09-23T17:38:17.479Z,55.60
2018-09-23T17:40:47.578Z,54.80
2018-09-23T17:43:18.462Z,54.80
2018-09-23T17:45:49.229Z,53.50
2018-09-23T17:48:19.587Z,54.80
2018-09-23T17:50:49.770Z,54.20
2018-09-23T17:53:20.539Z,53.90
2018-09-23T17:55:50.658Z,53.20
2018-09-23T17:58:22.344Z,52.70
2018-09-23T18:00:52.481Z,52.30
2018-09-23T18:03:23.091Z,52.70
2018-09-23T18:05:53.667Z,53.60
2018-09-23T18:08:24.337Z,52.80
2018-09-23T18:10:54.669Z,53.50
2018-09-23T18:13:26.503Z,54.80
2018-09-23T18:15:57.419Z,55.10
2018-09-23T18:18:28.151Z,54.40
2018-09-23T18:20:58.944Z,53.70
2018-09-23T18:23:28.865Z,50.10
2018-09-23T18:25:58.547Z,49.40
2018-09-23T18:28:28.744Z,51.20
2018-09-23T18:30:58.143Z,55.10
2018-09-23T18:33:27.794Z,55.70
2018-09-23T18:35:58.522Z,56.40
2018-09-23T18:38:27.924Z,57.30
2018-09-23T18:40:57.533Z,57.20
2018-09-23T18:43:27.447Z,58.00
2018-09-23T18:45:57.130Z,58.30
2018-09-23T18:48:27.123Z,58.90
2018-09-23T18:50:56.871Z,58.80
2018-09-23T18:53:27.145Z,58.70
2018-09-23T18:55:56.605Z,58.60
2018-09-23T18:58:26.829Z,58.90
2018-09-23T19:00:56.433Z,59.40
2018-09-23T19:03:26.879Z,59.30
2018-09-23T19:05:57.703Z,59.40
2018-09-23T19:08:28.542Z,59.40
2018-09-23T19:10:58.606Z,59.30
2018-09-23T19:13:32.985Z,59.20
2018-09-23T19:16:08.301Z,59.00
2018-09-23T19:18:37.886Z,58.80
2018-09-23T19:21:07.521Z,58.70
2018-09-23T19:23:37.022Z,59.00
2018-09-23T19:26:07.866Z,59.10
2018-09-23T19:28:37.329Z,59.30
2018-09-23T19:31:06.917Z,59.30
2018-09-23T19:33:36.939Z,59.00
2018-09-23T19:36:06.566Z,58.70
2018-09-23T19:38:36.198Z,58.10
2018-09-23T19:41:06.212Z,57.40
2018-09-23T19:43:35.854Z,57.50
2018-09-23T19:46:05.917Z,57.30
2018-09-23T19:48:35.725Z,57.00
2018-09-23T19:51:05.356Z,57.40
2018-09-23T19:53:34.823Z,57.20
2018-09-23T19:56:04.783Z,57.30
2018-09-23T19:58:34.205Z,57.40
2018-09-23T20:01:03.605Z,57.60
2018-09-23T20:03:33.298Z,57.50
2018-09-23T20:06:02.967Z,57.80
2018-09-23T20:08:32.536Z,57.90
2018-09-23T20:11:02.802Z,57.90
2018-09-23T20:13:32.355Z,57.90
2018-09-23T20:16:01.903Z,58.10
2018-09-23T20:18:31.528Z,58.30
2018-09-23T20:21:01.137Z,58.20
2018-09-23T20:23:30.767Z,58.70
2018-09-23T20:26:00.477Z,58.50
2018-09-23T20:28:30.076Z,58.30
2018-09-23T20:30:59.734Z,58.50
2018-09-23T20:33:29.707Z,58.40
2018-09-23T20:39:01.179Z,58.30
2018-09-23T20:41:31.118Z,58.40
2018-09-23T20:44:00.651Z,58.30
2018-09-23T20:46:30.741Z,58.30
2018-09-23T20:49:00.430Z,58.00
2018-09-23T20:51:29.899Z,58.10
2018-09-23T20:53:59.816Z,58.40
2018-09-23T20:56:29.420Z,58.20
2018-09-23T20:58:59.213Z,58.30
2018-09-23T21:01:28.895Z,58.10
2018-09-23T21:03:58.398Z,58.30
2018-09-23T21:06:28.082Z,58.20
2018-09-23T21:08:58.006Z,58.10
2018-09-23T21:11:27.699Z,58.40
2018-09-23T21:13:57.105Z,58.40
2018-09-23T21:16:28.547Z,58.30
2018-09-23T21:18:58.121Z,58.50
2018-09-23T21:21:27.592Z,58.60
2018-09-23T21:23:57.254Z,58.60
2018-09-23T21:26:26.866Z,58.60
2018-09-23T21:28:56.376Z,58.80
2018-09-23T21:31:26.556Z,58.90
2018-09-23T21:33:56.160Z,58.70
2018-09-23T21:36:25.648Z,58.70
2018-09-23T21:38:55.754Z,58.80
2018-09-23T21:41:25.187Z,58.80
2018-09-23T21:43:54.709Z,58.90
2018-09-23T21:46:24.821Z,58.90
2018-09-23T21:48:54.305Z,59.00
2018-09-23T21:51:23.743Z,59.80
2018-09-23T21:53:53.443Z,59.10
2018-09-23T21:56:23.412Z,59.00
2018-09-23T21:58:52.998Z,59.20
2018-09-23T22:01:22.884Z,59.20
2018-09-23T22:03:52.589Z,59.20
2018-09-23T22:06:22.455Z,59.20
2018-09-23T22:08:52.384Z,60.00
2018-09-23T22:11:22.273Z,60.10
2018-09-23T22:13:52.421Z,60.10
2018-09-23T22:16:22.733Z,60.30
2018-09-23T22:18:52.439Z,60.10
2018-09-23T22:21:22.376Z,59.60
2018-09-23T22:23:52.159Z,59.80
2018-09-23T22:26:21.981Z,60.00
2018-09-23T22:28:51.784Z,60.00
2018-09-23T22:31:21.858Z,60.20
2018-09-23T22:33:51.842Z,60.30
2018-09-23T22:36:22.148Z,60.30
2018-09-23T22:38:52.201Z,60.20
2018-09-23T22:41:21.963Z,60.30
2018-09-23T22:43:51.936Z,60.20
2018-09-23T22:46:21.982Z,60.30
2018-09-23T22:48:52.812Z,60.50
2018-09-23T22:51:22.996Z,60.20
2018-09-23T22:53:52.859Z,60.00
2018-09-23T22:56:22.789Z,60.20
2018-09-23T22:58:53.086Z,59.50
2018-09-23T23:01:22.788Z,59.90
2018-09-23T23:03:52.485Z,60.00
2018-09-23T23:06:22.264Z,59.90
2018-09-23T23:08:52.072Z,59.70
2018-09-23T23:11:21.911Z,59.10
2018-09-23T23:13:52.226Z,59.80
2018-09-23T23:16:22.288Z,59.80
2018-09-23T23:18:52.194Z,59.60
2018-09-23T23:21:21.813Z,60.20
2018-09-23T23:23:52.435Z,60.00
2018-09-23T23:26:21.996Z,59.90
2018-09-23T23:28:52.325Z,60.10
2018-09-23T23:31:21.994Z,60.00
2018-09-23T23:33:51.585Z,60.40
2018-09-23T23:36:21.806Z,59.80
2018-09-23T23:38:51.334Z,60.10
2018-09-23T23:41:21.186Z,60.00
2018-09-23T23:43:52.579Z,59.60
2018-09-23T23:46:22.019Z,59.90
2018-09-23T23:48:51.920Z,59.90
2018-09-23T23:51:21.752Z,59.40
2018-09-23T23:53:51.456Z,59.50
2018-09-23T23:56:21.266Z,59.50
2018-09-23T23:58:52.273Z,57.50
